Ladle Cove, Canada
Current Conditions -  °F | °C
As of 4:00 AM on Sunday 23 Nov 2014 (Local Time) from CYQX Reporting Station
Overcast Overcast  
Wind Chill: 14°   Ceiling: 7100
Heat Index: 27°   Visibility: 20mi
Dew Point: 19°   Wind: 17mph
Humidity: 74%   Direction: 240°WSW
Pressure: 29.6"   Gusts: 26mph
Location:  49.45°N, 54.05°W
Report Text: CYQX 230700Z 24015G23KT 20SM FEW035 BKN071 OVC130 M03/M07 A2960 RMK SC1AC4AC3 SLP030
Loading
Personal Weather Stations






























Interactive Weather Map New forecast layout! Learn more

10-Day Weather Forecast

Advertisements
Track Severe Weather on mobile